sensor_id;sensor_type;location;lat;lon;timestamp;P1;durP1;ratioP1;P2;durP2;ratioP2
62788;SDS011;66401;42.016;21.454;2024-02-23T00:02:05;35.57;;;18.67;;
62788;SDS011;66401;42.016;21.454;2024-02-23T00:04:31;33.93;;;20.43;;
62788;SDS011;66401;42.016;21.454;2024-02-23T00:06:56;40.83;;;20.27;;
62788;SDS011;66401;42.016;21.454;2024-02-23T00:09:22;32.97;;;20.60;;
62788;SDS011;66401;42.016;21.454;2024-02-23T00:11:49;36.17;;;20.07;;
62788;SDS011;66401;42.016;21.454;2024-02-23T00:14:15;39.07;;;20.87;;
62788;SDS011;66401;42.016;21.454;2024-02-23T00:16:43;39.93;;;21.80;;
62788;SDS011;66401;42.016;21.454;2024-02-23T00:19:09;38.73;;;23.13;;
62788;SDS011;66401;42.016;21.454;2024-02-23T00:21:38;42.10;;;21.37;;
62788;SDS011;66401;42.016;21.454;2024-02-23T00:24:05;35.50;;;21.50;;
62788;SDS011;66401;42.016;21.454;2024-02-23T00:26:31;33.53;;;20.10;;
62788;SDS011;66401;42.016;21.454;2024-02-23T00:28:57;36.83;;;21.27;;
62788;SDS011;66401;42.016;21.454;2024-02-23T00:31:22;38.00;;;21.87;;
62788;SDS011;66401;42.016;21.454;2024-02-23T00:33:48;35.17;;;20.53;;
62788;SDS011;66401;42.016;21.454;2024-02-23T00:36:14;34.03;;;19.93;;
62788;SDS011;66401;42.016;21.454;2024-02-23T00:38:40;38.33;;;18.33;;
62788;SDS011;66401;42.016;21.454;2024-02-23T00:41:05;36.23;;;19.60;;
62788;SDS011;66401;42.016;21.454;2024-02-23T00:43:37;29.50;;;18.20;;
62788;SDS011;66401;42.016;21.454;2024-02-23T00:46:03;32.77;;;18.80;;
62788;SDS011;66401;42.016;21.454;2024-02-23T00:48:29;29.30;;;18.33;;
62788;SDS011;66401;42.016;21.454;2024-02-23T00:50:55;28.90;;;17.13;;
62788;SDS011;66401;42.016;21.454;2024-02-23T00:53:20;34.87;;;17.70;;
62788;SDS011;66401;42.016;21.454;2024-02-23T00:55:46;31.43;;;17.17;;
62788;SDS011;66401;42.016;21.454;2024-02-23T00:58:12;29.17;;;17.47;;
62788;SDS011;66401;42.016;21.454;2024-02-23T01:00:38;45.10;;;21.53;;
62788;SDS011;66401;42.016;21.454;2024-02-23T01:03:03;36.83;;;18.67;;
62788;SDS011;66401;42.016;21.454;2024-02-23T01:05:30;38.93;;;20.73;;
62788;SDS011;66401;42.016;21.454;2024-02-23T01:07:55;42.27;;;20.30;;
62788;SDS011;66401;42.016;21.454;2024-02-23T01:10:21;38.40;;;19.33;;
62788;SDS011;66401;42.016;21.454;2024-02-23T01:12:47;34.27;;;18.87;;
62788;SDS011;66401;42.016;21.454;2024-02-23T01:15:12;28.40;;;16.87;;
62788;SDS011;66401;42.016;21.454;2024-02-23T01:17:38;28.80;;;16.10;;
62788;SDS011;66401;42.016;21.454;2024-02-23T01:20:03;27.00;;;16.13;;
62788;SDS011;66401;42.016;21.454;2024-02-23T01:22:30;32.83;;;16.70;;
62788;SDS011;66401;42.016;21.454;2024-02-23T01:24:55;28.10;;;15.93;;
62788;SDS011;66401;42.016;21.454;2024-02-23T01:27:21;27.33;;;16.30;;
62788;SDS011;66401;42.016;21.454;2024-02-23T01:29:47;35.57;;;18.27;;
62788;SDS011;66401;42.016;21.454;2024-02-23T01:32:13;32.87;;;16.37;;
62788;SDS011;66401;42.016;21.454;2024-02-23T01:34:38;28.83;;;16.27;;
62788;SDS011;66401;42.016;21.454;2024-02-23T01:37:04;32.07;;;17.07;;
62788;SDS011;66401;42.016;21.454;2024-02-23T01:39:29;31.40;;;16.77;;
62788;SDS011;66401;42.016;21.454;2024-02-23T01:41:55;30.47;;;17.00;;
62788;SDS011;66401;42.016;21.454;2024-02-23T01:44:20;29.73;;;16.70;;
62788;SDS011;66401;42.016;21.454;2024-02-23T01:46:46;32.63;;;15.93;;
62788;SDS011;66401;42.016;21.454;2024-02-23T01:49:13;27.47;;;15.60;;
62788;SDS011;66401;42.016;21.454;2024-02-23T01:51:39;28.30;;;15.47;;
62788;SDS011;66401;42.016;21.454;2024-02-23T01:54:05;33.30;;;16.53;;
62788;SDS011;66401;42.016;21.454;2024-02-23T01:56:32;22.57;;;14.83;;
62788;SDS011;66401;42.016;21.454;2024-02-23T01:58:58;34.73;;;14.57;;
62788;SDS011;66401;42.016;21.454;2024-02-23T02:01:24;28.13;;;14.97;;
62788;SDS011;66401;42.016;21.454;2024-02-23T02:03:51;29.43;;;15.77;;
62788;SDS011;66401;42.016;21.454;2024-02-23T02:06:17;28.23;;;15.27;;
62788;SDS011;66401;42.016;21.454;2024-02-23T02:08:42;29.07;;;14.60;;
62788;SDS011;66401;42.016;21.454;2024-02-23T02:11:08;25.70;;;14.07;;
62788;SDS011;66401;42.016;21.454;2024-02-23T02:13:33;24.73;;;14.83;;
62788;SDS011;66401;42.016;21.454;2024-02-23T02:16:00;28.63;;;16.20;;
62788;SDS011;66401;42.016;21.454;2024-02-23T02:18:27;26.50;;;14.47;;
62788;SDS011;66401;42.016;21.454;2024-02-23T02:20:55;27.80;;;15.30;;
62788;SDS011;66401;42.016;21.454;2024-02-23T02:23:22;26.87;;;14.97;;
62788;SDS011;66401;42.016;21.454;2024-02-23T02:25:57;27.73;;;15.07;;
62788;SDS011;66401;42.016;21.454;2024-02-23T02:28:24;24.40;;;14.57;;
62788;SDS011;66401;42.016;21.454;2024-02-23T02:30:50;26.43;;;15.33;;
62788;SDS011;66401;42.016;21.454;2024-02-23T02:33:16;26.23;;;15.30;;
62788;SDS011;66401;42.016;21.454;2024-02-23T02:35:42;26.50;;;16.40;;
62788;SDS011;66401;42.016;21.454;2024-02-23T02:38:07;26.87;;;15.53;;
62788;SDS011;66401;42.016;21.454;2024-02-23T02:40:33;29.63;;;15.30;;
62788;SDS011;66401;42.016;21.454;2024-02-23T02:42:58;31.93;;;15.97;;
62788;SDS011;66401;42.016;21.454;2024-02-23T02:45:24;28.90;;;15.07;;
62788;SDS011;66401;42.016;21.454;2024-02-23T02:47:49;23.63;;;14.90;;
62788;SDS011;66401;42.016;21.454;2024-02-23T02:50:15;30.67;;;14.27;;
62788;SDS011;66401;42.016;21.454;2024-02-23T02:52:41;24.57;;;13.43;;
62788;SDS011;66401;42.016;21.454;2024-02-23T02:55:07;26.67;;;13.60;;
62788;SDS011;66401;42.016;21.454;2024-02-23T02:57:33;24.47;;;13.97;;
62788;SDS011;66401;42.016;21.454;2024-02-23T03:00:01;30.20;;;15.27;;
62788;SDS011;66401;42.016;21.454;2024-02-23T03:02:30;28.83;;;15.50;;
62788;SDS011;66401;42.016;21.454;2024-02-23T03:04:55;32.20;;;15.47;;
62788;SDS011;66401;42.016;21.454;2024-02-23T03:07:21;28.53;;;15.37;;
62788;SDS011;66401;42.016;21.454;2024-02-23T03:09:46;29.20;;;15.13;;
62788;SDS011;66401;42.016;21.454;2024-02-23T03:12:12;27.00;;;14.90;;
62788;SDS011;66401;42.016;21.454;2024-02-23T03:14:37;25.10;;;12.03;;
62788;SDS011;66401;42.016;21.454;2024-02-23T03:17:05;22.97;;;11.73;;
62788;SDS011;66401;42.016;21.454;2024-02-23T03:19:32;30.27;;;13.67;;
62788;SDS011;66401;42.016;21.454;2024-02-23T03:21:57;21.03;;;10.53;;
62788;SDS011;66401;42.016;21.454;2024-02-23T03:24:23;25.27;;;12.87;;
62788;SDS011;66401;42.016;21.454;2024-02-23T03:26:49;26.57;;;13.17;;
62788;SDS011;66401;42.016;21.454;2024-02-23T03:29:14;29.30;;;14.33;;
62788;SDS011;66401;42.016;21.454;2024-02-23T03:31:41;25.80;;;12.97;;
62788;SDS011;66401;42.016;21.454;2024-02-23T03:34:06;28.37;;;15.63;;
62788;SDS011;66401;42.016;21.454;2024-02-23T03:36:32;30.43;;;15.13;;
62788;SDS011;66401;42.016;21.454;2024-02-23T03:38:59;20.53;;;12.43;;
62788;SDS011;66401;42.016;21.454;2024-02-23T03:41:24;21.50;;;12.70;;
62788;SDS011;66401;42.016;21.454;2024-02-23T03:43:50;29.00;;;14.73;;
62788;SDS011;66401;42.016;21.454;2024-02-23T03:46:15;23.77;;;13.00;;
62788;SDS011;66401;42.016;21.454;2024-02-23T03:48:41;21.60;;;11.63;;
62788;SDS011;66401;42.016;21.454;2024-02-23T03:51:08;19.20;;;11.20;;
62788;SDS011;66401;42.016;21.454;2024-02-23T03:53:34;20.83;;;10.80;;
62788;SDS011;66401;42.016;21.454;2024-02-23T03:56:00;19.80;;;11.00;;
62788;SDS011;66401;42.016;21.454;2024-02-23T03:58:25;21.17;;;10.57;;
62788;SDS011;66401;42.016;21.454;2024-02-23T04:00:51;18.63;;;11.70;;
62788;SDS011;66401;42.016;21.454;2024-02-23T04:03:17;19.97;;;11.50;;
62788;SDS011;66401;42.016;21.454;2024-02-23T04:05:42;15.33;;;10.23;;
62788;SDS011;66401;42.016;21.454;2024-02-23T04:08:08;20.67;;;10.60;;
62788;SDS011;66401;42.016;21.454;2024-02-23T04:10:34;20.47;;;12.27;;
62788;SDS011;66401;42.016;21.454;2024-02-23T04:12:59;17.77;;;9.60;;
62788;SDS011;66401;42.016;21.454;2024-02-23T04:15:25;19.93;;;10.23;;
62788;SDS011;66401;42.016;21.454;2024-02-23T04:17:51;20.47;;;12.67;;
62788;SDS011;66401;42.016;21.454;2024-02-23T04:20:16;25.17;;;12.60;;
62788;SDS011;66401;42.016;21.454;2024-02-23T04:22:42;21.27;;;11.83;;
62788;SDS011;66401;42.016;21.454;2024-02-23T04:25:07;24.10;;;11.20;;
62788;SDS011;66401;42.016;21.454;2024-02-23T04:27:33;21.77;;;11.83;;
62788;SDS011;66401;42.016;21.454;2024-02-23T04:29:59;21.60;;;12.17;;
62788;SDS011;66401;42.016;21.454;2024-02-23T04:32:24;16.63;;;10.00;;
62788;SDS011;66401;42.016;21.454;2024-02-23T04:34:50;20.60;;;11.77;;
62788;SDS011;66401;42.016;21.454;2024-02-23T04:37:15;22.03;;;11.90;;
62788;SDS011;66401;42.016;21.454;2024-02-23T04:39:43;19.93;;;10.97;;
62788;SDS011;66401;42.016;21.454;2024-02-23T04:42:09;18.33;;;11.17;;
62788;SDS011;66401;42.016;21.454;2024-02-23T04:44:35;20.00;;;11.20;;
62788;SDS011;66401;42.016;21.454;2024-02-23T04:47:01;20.33;;;10.67;;
62788;SDS011;66401;42.016;21.454;2024-02-23T04:49:27;22.03;;;10.87;;
62788;SDS011;66401;42.016;21.454;2024-02-23T04:51:52;27.37;;;11.40;;
62788;SDS011;66401;42.016;21.454;2024-02-23T04:54:18;26.17;;;11.57;;
62788;SDS011;66401;42.016;21.454;2024-02-23T04:56:44;19.57;;;10.57;;
62788;SDS011;66401;42.016;21.454;2024-02-23T04:59:09;23.70;;;12.33;;
62788;SDS011;66401;42.016;21.454;2024-02-23T05:01:38;20.43;;;10.70;;
62788;SDS011;66401;42.016;21.454;2024-02-23T05:04:04;22.90;;;11.83;;
62788;SDS011;66401;42.016;21.454;2024-02-23T05:06:30;22.37;;;11.77;;
62788;SDS011;66401;42.016;21.454;2024-02-23T05:08:55;22.27;;;12.13;;
62788;SDS011;66401;42.016;21.454;2024-02-23T05:11:21;23.17;;;12.43;;
62788;SDS011;66401;42.016;21.454;2024-02-23T05:13:47;25.37;;;13.13;;
62788;SDS011;66401;42.016;21.454;2024-02-23T05:16:15;23.93;;;13.30;;
62788;SDS011;66401;42.016;21.454;2024-02-23T05:18:41;22.27;;;13.60;;
62788;SDS011;66401;42.016;21.454;2024-02-23T05:21:07;22.90;;;11.73;;
62788;SDS011;66401;42.016;21.454;2024-02-23T05:23:33;25.43;;;14.13;;
62788;SDS011;66401;42.016;21.454;2024-02-23T05:25:58;18.00;;;11.70;;
62788;SDS011;66401;42.016;21.454;2024-02-23T05:28:24;14.57;;;10.17;;
62788;SDS011;66401;42.016;21.454;2024-02-23T05:30:49;23.77;;;12.20;;
62788;SDS011;66401;42.016;21.454;2024-02-23T05:33:15;23.47;;;11.80;;
62788;SDS011;66401;42.016;21.454;2024-02-23T05:35:41;23.10;;;11.27;;
62788;SDS011;66401;42.016;21.454;2024-02-23T05:38:07;22.67;;;12.07;;
62788;SDS011;66401;42.016;21.454;2024-02-23T05:40:32;24.20;;;13.00;;
62788;SDS011;66401;42.016;21.454;2024-02-23T05:42:58;24.20;;;13.13;;
62788;SDS011;66401;42.016;21.454;2024-02-23T05:45:24;25.73;;;13.47;;
62788;SDS011;66401;42.016;21.454;2024-02-23T05:47:49;27.27;;;13.37;;
62788;SDS011;66401;42.016;21.454;2024-02-23T05:50:15;24.50;;;12.90;;
62788;SDS011;66401;42.016;21.454;2024-02-23T05:52:41;22.27;;;13.07;;
62788;SDS011;66401;42.016;21.454;2024-02-23T05:55:06;23.27;;;12.93;;
62788;SDS011;66401;42.016;21.454;2024-02-23T05:57:32;24.30;;;13.30;;
62788;SDS011;66401;42.016;21.454;2024-02-23T05:59:58;27.87;;;12.80;;
62788;SDS011;66401;42.016;21.454;2024-02-23T06:02:24;20.23;;;11.50;;
62788;SDS011;66401;42.016;21.454;2024-02-23T06:04:50;25.30;;;13.53;;
62788;SDS011;66401;42.016;21.454;2024-02-23T06:07:16;18.53;;;11.67;;
62788;SDS011;66401;42.016;21.454;2024-02-23T06:09:41;21.97;;;12.77;;
62788;SDS011;66401;42.016;21.454;2024-02-23T06:12:08;26.13;;;12.13;;
62788;SDS011;66401;42.016;21.454;2024-02-23T06:14:34;27.30;;;14.83;;
62788;SDS011;66401;42.016;21.454;2024-02-23T06:17:00;23.80;;;13.33;;
62788;SDS011;66401;42.016;21.454;2024-02-23T06:19:26;24.33;;;13.60;;
62788;SDS011;66401;42.016;21.454;2024-02-23T06:21:52;17.93;;;12.67;;
62788;SDS011;66401;42.016;21.454;2024-02-23T06:24:17;18.90;;;12.07;;
62788;SDS011;66401;42.016;21.454;2024-02-23T06:26:43;27.27;;;14.10;;
62788;SDS011;66401;42.016;21.454;2024-02-23T06:29:10;22.57;;;11.73;;
62788;SDS011;66401;42.016;21.454;2024-02-23T06:31:38;18.63;;;10.80;;
62788;SDS011;66401;42.016;21.454;2024-02-23T06:34:04;22.90;;;12.20;;
62788;SDS011;66401;42.016;21.454;2024-02-23T06:36:30;21.70;;;12.30;;
62788;SDS011;66401;42.016;21.454;2024-02-23T06:38:55;22.30;;;13.90;;
62788;SDS011;66401;42.016;21.454;2024-02-23T06:41:21;22.40;;;13.90;;
62788;SDS011;66401;42.016;21.454;2024-02-23T06:43:47;23.93;;;13.33;;
62788;SDS011;66401;42.016;21.454;2024-02-23T06:46:12;22.70;;;12.97;;
62788;SDS011;66401;42.016;21.454;2024-02-23T06:48:38;24.17;;;14.70;;
62788;SDS011;66401;42.016;21.454;2024-02-23T06:51:04;31.77;;;16.70;;
62788;SDS011;66401;42.016;21.454;2024-02-23T06:53:34;26.30;;;15.03;;
62788;SDS011;66401;42.016;21.454;2024-02-23T06:55:59;33.67;;;14.90;;
62788;SDS011;66401;42.016;21.454;2024-02-23T06:58:25;24.27;;;14.13;;
62788;SDS011;66401;42.016;21.454;2024-02-23T07:00:51;24.43;;;13.43;;
62788;SDS011;66401;42.016;21.454;2024-02-23T07:03:17;26.00;;;13.90;;
62788;SDS011;66401;42.016;21.454;2024-02-23T07:05:42;24.87;;;14.60;;
62788;SDS011;66401;42.016;21.454;2024-02-23T07:08:08;25.20;;;12.67;;
62788;SDS011;66401;42.016;21.454;2024-02-23T07:10:33;23.00;;;13.50;;
62788;SDS011;66401;42.016;21.454;2024-02-23T07:12:59;22.37;;;12.53;;
62788;SDS011;66401;42.016;21.454;2024-02-23T07:15:24;28.40;;;15.67;;
62788;SDS011;66401;42.016;21.454;2024-02-23T07:17:51;35.87;;;19.70;;
62788;SDS011;66401;42.016;21.454;2024-02-23T07:20:17;22.43;;;12.93;;
62788;SDS011;66401;42.016;21.454;2024-02-23T07:22:46;25.53;;;12.50;;
62788;SDS011;66401;42.016;21.454;2024-02-23T07:25:12;22.83;;;13.10;;
62788;SDS011;66401;42.016;21.454;2024-02-23T07:27:41;17.53;;;12.10;;
62788;SDS011;66401;42.016;21.454;2024-02-23T07:30:07;23.80;;;14.27;;
62788;SDS011;66401;42.016;21.454;2024-02-23T07:32:33;24.27;;;13.27;;
62788;SDS011;66401;42.016;21.454;2024-02-23T07:34:58;28.40;;;13.30;;
62788;SDS011;66401;42.016;21.454;2024-02-23T07:37:25;19.10;;;10.90;;
62788;SDS011;66401;42.016;21.454;2024-02-23T07:39:52;17.60;;;11.37;;
62788;SDS011;66401;42.016;21.454;2024-02-23T07:42:17;16.37;;;9.93;;
62788;SDS011;66401;42.016;21.454;2024-02-23T07:44:44;14.33;;;9.83;;
62788;SDS011;66401;42.016;21.454;2024-02-23T07:47:10;16.77;;;11.13;;
62788;SDS011;66401;42.016;21.454;2024-02-23T07:49:36;17.90;;;9.80;;
62788;SDS011;66401;42.016;21.454;2024-02-23T07:52:02;16.47;;;10.87;;
62788;SDS011;66401;42.016;21.454;2024-02-23T07:54:28;18.80;;;11.13;;
62788;SDS011;66401;42.016;21.454;2024-02-23T07:56:54;18.90;;;12.20;;
62788;SDS011;66401;42.016;21.454;2024-02-23T07:59:19;17.47;;;11.73;;
62788;SDS011;66401;42.016;21.454;2024-02-23T08:01:45;20.67;;;12.33;;
62788;SDS011;66401;42.016;21.454;2024-02-23T08:04:12;19.57;;;12.37;;
62788;SDS011;66401;42.016;21.454;2024-02-23T08:06:38;20.53;;;12.83;;
62788;SDS011;66401;42.016;21.454;2024-02-23T08:09:04;18.13;;;10.80;;
62788;SDS011;66401;42.016;21.454;2024-02-23T08:11:30;18.07;;;11.50;;
62788;SDS011;66401;42.016;21.454;2024-02-23T08:13:55;18.17;;;11.83;;
62788;SDS011;66401;42.016;21.454;2024-02-23T08:16:21;14.43;;;10.33;;
62788;SDS011;66401;42.016;21.454;2024-02-23T08:18:46;16.33;;;11.17;;
62788;SDS011;66401;42.016;21.454;2024-02-23T08:21:12;19.93;;;12.13;;
62788;SDS011;66401;42.016;21.454;2024-02-23T08:23:38;20.33;;;12.50;;
62788;SDS011;66401;42.016;21.454;2024-02-23T08:26:03;17.50;;;11.10;;
62788;SDS011;66401;42.016;21.454;2024-02-23T08:28:29;19.20;;;11.63;;
62788;SDS011;66401;42.016;21.454;2024-02-23T08:30:54;15.10;;;10.67;;
62788;SDS011;66401;42.016;21.454;2024-02-23T08:33:20;17.07;;;11.57;;
62788;SDS011;66401;42.016;21.454;2024-02-23T08:35:45;17.80;;;11.03;;
62788;SDS011;66401;42.016;21.454;2024-02-23T08:38:13;18.93;;;12.07;;
62788;SDS011;66401;42.016;21.454;2024-02-23T08:40:39;18.03;;;12.10;;
62788;SDS011;66401;42.016;21.454;2024-02-23T08:43:04;20.13;;;12.53;;
62788;SDS011;66401;42.016;21.454;2024-02-23T08:45:30;19.30;;;12.43;;
62788;SDS011;66401;42.016;21.454;2024-02-23T08:47:56;19.10;;;12.07;;
62788;SDS011;66401;42.016;21.454;2024-02-23T08:50:21;22.17;;;12.50;;
62788;SDS011;66401;42.016;21.454;2024-02-23T08:52:47;19.87;;;12.20;;
62788;SDS011;66401;42.016;21.454;2024-02-23T08:55:12;25.27;;;12.47;;
62788;SDS011;66401;42.016;21.454;2024-02-23T08:57:38;17.30;;;12.30;;
62788;SDS011;66401;42.016;21.454;2024-02-23T09:00:04;17.70;;;12.03;;
62788;SDS011;66401;42.016;21.454;2024-02-23T09:02:30;22.57;;;13.10;;
62788;SDS011;66401;42.016;21.454;2024-02-23T09:04:57;19.80;;;12.50;;
62788;SDS011;66401;42.016;21.454;2024-02-23T09:07:24;15.40;;;11.20;;
62788;SDS011;66401;42.016;21.454;2024-02-23T09:09:50;22.80;;;11.93;;
62788;SDS011;66401;42.016;21.454;2024-02-23T09:12:16;18.70;;;12.37;;
62788;SDS011;66401;42.016;21.454;2024-02-23T09:14:42;19.10;;;12.87;;
62788;SDS011;66401;42.016;21.454;2024-02-23T09:17:08;20.67;;;12.27;;
62788;SDS011;66401;42.016;21.454;2024-02-23T09:19:35;16.33;;;10.57;;
62788;SDS011;66401;42.016;21.454;2024-02-23T09:22:01;26.57;;;12.47;;
62788;SDS011;66401;42.016;21.454;2024-02-23T09:24:28;20.00;;;12.23;;
62788;SDS011;66401;42.016;21.454;2024-02-23T09:26:53;14.77;;;11.27;;
62788;SDS011;66401;42.016;21.454;2024-02-23T09:31:48;14.77;;;11.00;;
62788;SDS011;66401;42.016;21.454;2024-02-23T09:34:14;17.30;;;12.37;;
62788;SDS011;66401;42.016;21.454;2024-02-23T09:36:39;14.13;;;11.00;;
62788;SDS011;66401;42.016;21.454;2024-02-23T09:39:05;17.50;;;11.83;;
62788;SDS011;66401;42.016;21.454;2024-02-23T09:41:30;17.40;;;11.80;;
62788;SDS011;66401;42.016;21.454;2024-02-23T09:43:58;16.07;;;11.00;;
62788;SDS011;66401;42.016;21.454;2024-02-23T09:46:24;16.60;;;11.17;;
62788;SDS011;66401;42.016;21.454;2024-02-23T09:48:51;16.07;;;11.50;;
62788;SDS011;66401;42.016;21.454;2024-02-23T09:51:17;20.90;;;11.57;;
62788;SDS011;66401;42.016;21.454;2024-02-23T09:53:43;17.83;;;11.17;;
62788;SDS011;66401;42.016;21.454;2024-02-23T09:56:09;18.50;;;11.23;;
62788;SDS011;66401;42.016;21.454;2024-02-23T09:58:39;12.27;;;9.93;;
62788;SDS011;66401;42.016;21.454;2024-02-23T10:01:06;17.70;;;11.30;;
62788;SDS011;66401;42.016;21.454;2024-02-23T10:03:32;15.87;;;12.00;;
62788;SDS011;66401;42.016;21.454;2024-02-23T10:05:57;20.37;;;11.93;;
62788;SDS011;66401;42.016;21.454;2024-02-23T10:08:23;18.27;;;12.87;;
62788;SDS011;66401;42.016;21.454;2024-02-23T10:10:49;19.37;;;11.63;;
62788;SDS011;66401;42.016;21.454;2024-02-23T10:13:19;18.57;;;11.97;;
62788;SDS011;66401;42.016;21.454;2024-02-23T10:15:49;14.57;;;11.03;;
62788;SDS011;66401;42.016;21.454;2024-02-23T10:18:15;17.07;;;11.80;;
62788;SDS011;66401;42.016;21.454;2024-02-23T10:20:41;16.30;;;12.00;;
62788;SDS011;66401;42.016;21.454;2024-02-23T10:23:08;12.70;;;10.50;;
62788;SDS011;66401;42.016;21.454;2024-02-23T10:25:35;17.73;;;11.53;;
62788;SDS011;66401;42.016;21.454;2024-02-23T10:28:01;12.37;;;9.30;;
62788;SDS011;66401;42.016;21.454;2024-02-23T10:30:27;12.97;;;10.23;;
62788;SDS011;66401;42.016;21.454;2024-02-23T10:32:55;13.85;;;10.98;;
62788;SDS011;66401;42.016;21.454;2024-02-23T10:35:21;12.52;;;10.23;;
62788;SDS011;66401;42.016;21.454;2024-02-23T10:37:48;11.80;;;10.05;;
62788;SDS011;66401;42.016;21.454;2024-02-23T10:40:20;13.00;;;10.88;;
62788;SDS011;66401;42.016;21.454;2024-02-23T10:42:49;11.90;;;9.48;;
62788;SDS011;66401;42.016;21.454;2024-02-23T10:45:17;13.23;;;9.53;;
62788;SDS011;66401;42.016;21.454;2024-02-23T10:47:44;11.85;;;9.82;;
62788;SDS011;66401;42.016;21.454;2024-02-23T10:50:11;9.68;;;8.40;;
62788;SDS011;66401;42.016;21.454;2024-02-23T10:52:41;8.82;;;7.93;;
62788;SDS011;66401;42.016;21.454;2024-02-23T10:55:10;9.65;;;8.07;;
62788;SDS011;66401;42.016;21.454;2024-02-23T10:57:36;9.90;;;8.02;;
62788;SDS011;66401;42.016;21.454;2024-02-23T11:00:03;9.57;;;7.32;;
62788;SDS011;66401;42.016;21.454;2024-02-23T11:02:31;12.13;;;8.25;;
62788;SDS011;66401;42.016;21.454;2024-02-23T11:05:00;8.38;;;7.47;;
62788;SDS011;66401;42.016;21.454;2024-02-23T11:07:28;7.00;;;6.30;;
62788;SDS011;66401;42.016;21.454;2024-02-23T11:09:58;6.22;;;5.63;;
62788;SDS011;66401;42.016;21.454;2024-02-23T11:12:24;8.98;;;6.30;;
62788;SDS011;66401;42.016;21.454;2024-02-23T11:14:51;7.20;;;6.38;;
62788;SDS011;66401;42.016;21.454;2024-02-23T11:17:20;8.13;;;7.10;;
62788;SDS011;66401;42.016;21.454;2024-02-23T11:19:51;9.90;;;6.67;;
62788;SDS011;66401;42.016;21.454;2024-02-23T11:22:26;6.73;;;6.13;;
62788;SDS011;66401;42.016;21.454;2024-02-23T11:24:59;7.00;;;6.30;;
62788;SDS011;66401;42.016;21.454;2024-02-23T11:27:32;9.33;;;5.43;;
62788;SDS011;66401;42.016;21.454;2024-02-23T11:30:02;6.53;;;5.90;;
62788;SDS011;66401;42.016;21.454;2024-02-23T11:32:37;4.93;;;4.53;;
62788;SDS011;66401;42.016;21.454;2024-02-23T11:35:07;5.53;;;5.03;;
62788;SDS011;66401;42.016;21.454;2024-02-23T11:37:55;6.03;;;5.43;;
62788;SDS011;66401;42.016;21.454;2024-02-23T11:40:27;4.50;;;4.10;;
62788;SDS011;66401;42.016;21.454;2024-02-23T11:42:57;3.97;;;3.67;;
62788;SDS011;66401;42.016;21.454;2024-02-23T11:45:25;4.07;;;3.33;;
62788;SDS011;66401;42.016;21.454;2024-02-23T11:47:52;5.33;;;3.60;;
62788;SDS011;66401;42.016;21.454;2024-02-23T11:50:18;3.20;;;3.00;;
62788;SDS011;66401;42.016;21.454;2024-02-23T11:52:45;3.63;;;3.33;;
62788;SDS011;66401;42.016;21.454;2024-02-23T11:55:11;3.70;;;3.40;;
62788;SDS011;66401;42.016;21.454;2024-02-23T11:57:38;3.93;;;3.63;;
62788;SDS011;66401;42.016;21.454;2024-02-23T12:00:06;3.30;;;3.10;;
62788;SDS011;66401;42.016;21.454;2024-02-23T12:02:34;2.93;;;2.63;;
62788;SDS011;66401;42.016;21.454;2024-02-23T12:05:00;3.30;;;3.00;;
62788;SDS011;66401;42.016;21.454;2024-02-23T12:07:26;4.37;;;2.60;;
62788;SDS011;66401;42.016;21.454;2024-02-23T12:09:54;3.77;;;3.37;;
62788;SDS011;66401;42.016;21.454;2024-02-23T12:12:21;3.00;;;2.80;;
62788;SDS011;66401;42.016;21.454;2024-02-23T12:14:47;3.27;;;2.97;;
62788;SDS011;66401;42.016;21.454;2024-02-23T12:17:12;4.37;;;2.77;;
62788;SDS011;66401;42.016;21.454;2024-02-23T12:19:39;3.20;;;2.90;;
62788;SDS011;66401;42.016;21.454;2024-02-23T12:22:05;2.50;;;2.40;;
62788;SDS011;66401;42.016;21.454;2024-02-23T12:24:31;3.10;;;2.73;;
62788;SDS011;66401;42.016;21.454;2024-02-23T12:26:56;3.70;;;2.50;;
62788;SDS011;66401;42.016;21.454;2024-02-23T12:29:23;2.63;;;2.13;;
62788;SDS011;66401;42.016;21.454;2024-02-23T12:31:49;2.70;;;2.20;;
62788;SDS011;66401;42.016;21.454;2024-02-23T12:34:15;2.70;;;2.20;;
62788;SDS011;66401;42.016;21.454;2024-02-23T12:36:43;3.50;;;2.40;;
62788;SDS011;66401;42.016;21.454;2024-02-23T12:39:11;2.20;;;2.10;;
62788;SDS011;66401;42.016;21.454;2024-02-23T12:41:36;2.57;;;2.37;;
62788;SDS011;66401;42.016;21.454;2024-02-23T12:44:02;2.63;;;2.23;;
62788;SDS011;66401;42.016;21.454;2024-02-23T12:46:27;3.10;;;2.30;;
62788;SDS011;66401;42.016;21.454;2024-02-23T12:48:53;2.83;;;2.63;;
62788;SDS011;66401;42.016;21.454;2024-02-23T12:51:18;2.70;;;2.50;;
62788;SDS011;66401;42.016;21.454;2024-02-23T12:53:44;3.37;;;2.63;;
62788;SDS011;66401;42.016;21.454;2024-02-23T12:56:10;2.07;;;1.93;;
62788;SDS011;66401;42.016;21.454;2024-02-23T12:58:39;2.80;;;2.47;;
62788;SDS011;66401;42.016;21.454;2024-02-23T13:01:08;2.93;;;2.70;;
62788;SDS011;66401;42.016;21.454;2024-02-23T13:03:34;3.57;;;3.10;;
62788;SDS011;66401;42.016;21.454;2024-02-23T13:06:01;4.43;;;3.37;;
62788;SDS011;66401;42.016;21.454;2024-02-23T13:08:27;4.17;;;2.87;;
62788;SDS011;66401;42.016;21.454;2024-02-23T13:10:53;3.73;;;3.30;;
62788;SDS011;66401;42.016;21.454;2024-02-23T13:13:20;4.27;;;3.90;;
62788;SDS011;66401;42.016;21.454;2024-02-23T13:15:46;5.57;;;3.93;;
62788;SDS011;66401;42.016;21.454;2024-02-23T13:18:13;4.10;;;3.50;;
62788;SDS011;66401;42.016;21.454;2024-02-23T13:20:39;4.37;;;3.97;;
62788;SDS011;66401;42.016;21.454;2024-02-23T13:23:08;4.33;;;3.63;;
62788;SDS011;66401;42.016;21.454;2024-02-23T13:25:40;3.90;;;3.50;;
62788;SDS011;66401;42.016;21.454;2024-02-23T13:28:07;3.57;;;2.90;;
62788;SDS011;66401;42.016;21.454;2024-02-23T13:30:34;4.67;;;3.00;;
62788;SDS011;66401;42.016;21.454;2024-02-23T13:33:00;3.57;;;3.23;;
62788;SDS011;66401;42.016;21.454;2024-02-23T13:35:26;2.83;;;2.63;;
62788;SDS011;66401;42.016;21.454;2024-02-23T13:37:52;2.30;;;2.10;;
62788;SDS011;66401;42.016;21.454;2024-02-23T13:40:18;2.63;;;2.50;;
62788;SDS011;66401;42.016;21.454;2024-02-23T13:42:43;3.37;;;2.70;;
62788;SDS011;66401;42.016;21.454;2024-02-23T13:45:11;3.60;;;3.30;;
62788;SDS011;66401;42.016;21.454;2024-02-23T13:47:39;3.40;;;3.10;;
62788;SDS011;66401;42.016;21.454;2024-02-23T13:50:05;4.87;;;3.43;;
62788;SDS011;66401;42.016;21.454;2024-02-23T13:52:31;4.10;;;2.80;;
62788;SDS011;66401;42.016;21.454;2024-02-23T13:54:57;3.13;;;2.50;;
62788;SDS011;66401;42.016;21.454;2024-02-23T13:57:22;3.33;;;3.00;;
62788;SDS011;66401;42.016;21.454;2024-02-23T13:59:49;3.43;;;3.13;;
62788;SDS011;66401;42.016;21.454;2024-02-23T14:02:15;4.97;;;2.90;;
62788;SDS011;66401;42.016;21.454;2024-02-23T14:04:41;3.90;;;3.57;;
62788;SDS011;66401;42.016;21.454;2024-02-23T14:07:07;5.47;;;4.23;;
62788;SDS011;66401;42.016;21.454;2024-02-23T14:09:33;7.80;;;5.60;;
62788;SDS011;66401;42.016;21.454;2024-02-23T14:11:59;7.10;;;5.03;;
62788;SDS011;66401;42.016;21.454;2024-02-23T14:14:25;6.53;;;5.77;;